sensor_id;sensor_type;location;lat;lon;timestamp;P1;durP1;ratioP1;P2;durP2;ratioP2
46593;SDS011;35342;52.378;4.648;2022-12-18T00:02:10;72.60;;;23.90;;
46593;SDS011;35342;52.378;4.648;2022-12-18T00:04:36;70.00;;;23.20;;
46593;SDS011;35342;52.378;4.648;2022-12-18T00:07:01;72.65;;;23.00;;
46593;SDS011;35342;52.378;4.648;2022-12-18T00:09:27;66.65;;;24.08;;
46593;SDS011;35342;52.378;4.648;2022-12-18T00:11:53;75.45;;;23.08;;
46593;SDS011;35342;52.378;4.648;2022-12-18T00:14:19;55.25;;;21.45;;
46593;SDS011;35342;52.378;4.648;2022-12-18T00:16:45;65.30;;;20.30;;
46593;SDS011;35342;52.378;4.648;2022-12-18T00:19:11;62.33;;;23.27;;
46593;SDS011;35342;52.378;4.648;2022-12-18T00:21:37;62.13;;;20.63;;
46593;SDS011;35342;52.378;4.648;2022-12-18T00:24:03;59.95;;;20.42;;
46593;SDS011;35342;52.378;4.648;2022-12-18T00:26:30;62.45;;;19.08;;
46593;SDS011;35342;52.378;4.648;2022-12-18T00:29:04;55.47;;;19.08;;
46593;SDS011;35342;52.378;4.648;2022-12-18T00:31:31;55.92;;;19.30;;
46593;SDS011;35342;52.378;4.648;2022-12-18T00:33:57;63.17;;;20.10;;
46593;SDS011;35342;52.378;4.648;2022-12-18T00:36:33;55.30;;;18.80;;
46593;SDS011;35342;52.378;4.648;2022-12-18T00:38:59;55.33;;;19.20;;
46593;SDS011;35342;52.378;4.648;2022-12-18T00:41:27;59.45;;;20.42;;
46593;SDS011;35342;52.378;4.648;2022-12-18T00:44:12;50.20;;;18.67;;
46593;SDS011;35342;52.378;4.648;2022-12-18T00:46:39;62.00;;;21.38;;
46593;SDS011;35342;52.378;4.648;2022-12-18T00:49:05;56.50;;;20.10;;
46593;SDS011;35342;52.378;4.648;2022-12-18T00:51:31;53.33;;;20.40;;
46593;SDS011;35342;52.378;4.648;2022-12-18T00:53:57;54.75;;;20.48;;
46593;SDS011;35342;52.378;4.648;2022-12-18T00:56:23;59.42;;;22.05;;
46593;SDS011;35342;52.378;4.648;2022-12-18T00:58:49;62.40;;;20.25;;
46593;SDS011;35342;52.378;4.648;2022-12-18T01:01:14;60.53;;;20.65;;
46593;SDS011;35342;52.378;4.648;2022-12-18T01:03:40;66.63;;;21.25;;
46593;SDS011;35342;52.378;4.648;2022-12-18T01:06:09;62.03;;;20.65;;
46593;SDS011;35342;52.378;4.648;2022-12-18T01:08:36;54.20;;;17.75;;
46593;SDS011;35342;52.378;4.648;2022-12-18T01:11:16;49.72;;;18.92;;
46593;SDS011;35342;52.378;4.648;2022-12-18T01:13:43;58.60;;;20.25;;
46593;SDS011;35342;52.378;4.648;2022-12-18T01:16:11;48.50;;;18.65;;
46593;SDS011;35342;52.378;4.648;2022-12-18T01:18:37;61.95;;;19.58;;
46593;SDS011;35342;52.378;4.648;2022-12-18T01:21:10;51.88;;;21.02;;
46593;SDS011;35342;52.378;4.648;2022-12-18T01:23:37;53.63;;;18.33;;
46593;SDS011;35342;52.378;4.648;2022-12-18T01:26:10;58.45;;;18.00;;
46593;SDS011;35342;52.378;4.648;2022-12-18T01:28:37;54.28;;;20.38;;
46593;SDS011;35342;52.378;4.648;2022-12-18T01:31:09;51.90;;;20.08;;
46593;SDS011;35342;52.378;4.648;2022-12-18T01:33:41;52.20;;;19.27;;
46593;SDS011;35342;52.378;4.648;2022-12-18T01:36:07;59.25;;;19.20;;
46593;SDS011;35342;52.378;4.648;2022-12-18T01:38:33;56.42;;;19.38;;
46593;SDS011;35342;52.378;4.648;2022-12-18T01:41:00;57.45;;;18.95;;
46593;SDS011;35342;52.378;4.648;2022-12-18T01:46:14;59.88;;;21.13;;
46593;SDS011;35342;52.378;4.648;2022-12-18T01:48:41;56.90;;;18.38;;
46593;SDS011;35342;52.378;4.648;2022-12-18T01:51:08;67.30;;;21.55;;
46593;SDS011;35342;52.378;4.648;2022-12-18T01:53:35;58.40;;;20.80;;
46593;SDS011;35342;52.378;4.648;2022-12-18T01:56:01;50.05;;;18.58;;
46593;SDS011;35342;52.378;4.648;2022-12-18T01:58:32;56.15;;;18.75;;
46593;SDS011;35342;52.378;4.648;2022-12-18T02:01:03;58.53;;;19.90;;
46593;SDS011;35342;52.378;4.648;2022-12-18T02:03:29;53.40;;;19.90;;
46593;SDS011;35342;52.378;4.648;2022-12-18T02:06:09;57.85;;;19.70;;
46593;SDS011;35342;52.378;4.648;2022-12-18T02:08:50;48.95;;;18.65;;
46593;SDS011;35342;52.378;4.648;2022-12-18T02:11:37;54.10;;;18.55;;
46593;SDS011;35342;52.378;4.648;2022-12-18T02:16:43;52.65;;;18.73;;
46593;SDS011;35342;52.378;4.648;2022-12-18T02:24:45;51.38;;;18.35;;
46593;SDS011;35342;52.378;4.648;2022-12-18T02:27:19;54.72;;;19.25;;
46593;SDS011;35342;52.378;4.648;2022-12-18T02:29:46;55.20;;;19.75;;
46593;SDS011;35342;52.378;4.648;2022-12-18T02:32:20;74.20;;;18.60;;
46593;SDS011;35342;52.378;4.648;2022-12-18T02:34:49;50.92;;;17.20;;
46593;SDS011;35342;52.378;4.648;2022-12-18T02:37:17;62.95;;;21.65;;
46593;SDS011;35342;52.378;4.648;2022-12-18T02:39:44;55.33;;;19.83;;
46593;SDS011;35342;52.378;4.648;2022-12-18T02:42:11;53.92;;;17.55;;
46593;SDS011;35342;52.378;4.648;2022-12-18T02:44:44;52.60;;;19.75;;
46593;SDS011;35342;52.378;4.648;2022-12-18T02:47:14;59.45;;;19.70;;
46593;SDS011;35342;52.378;4.648;2022-12-18T02:57:56;49.42;;;17.33;;
46593;SDS011;35342;52.378;4.648;2022-12-18T03:00:37;53.88;;;16.92;;
46593;SDS011;35342;52.378;4.648;2022-12-18T03:03:27;43.92;;;17.25;;
46593;SDS011;35342;52.378;4.648;2022-12-18T03:08:35;41.30;;;15.57;;
46593;SDS011;35342;52.378;4.648;2022-12-18T03:11:10;43.03;;;15.55;;
46593;SDS011;35342;52.378;4.648;2022-12-18T03:16:05;45.72;;;16.65;;
46593;SDS011;35342;52.378;4.648;2022-12-18T03:18:38;47.55;;;15.55;;
46593;SDS011;35342;52.378;4.648;2022-12-18T03:21:14;37.28;;;14.48;;
46593;SDS011;35342;52.378;4.648;2022-12-18T03:23:44;53.47;;;18.27;;
46593;SDS011;35342;52.378;4.648;2022-12-18T03:26:15;42.67;;;16.65;;
46593;SDS011;35342;52.378;4.648;2022-12-18T03:28:44;50.88;;;17.88;;
46593;SDS011;35342;52.378;4.648;2022-12-18T03:31:12;57.75;;;19.63;;
46593;SDS011;35342;52.378;4.648;2022-12-18T03:33:53;47.97;;;17.70;;
46593;SDS011;35342;52.378;4.648;2022-12-18T03:36:22;47.25;;;19.70;;
46593;SDS011;35342;52.378;4.648;2022-12-18T03:38:49;44.28;;;16.65;;
46593;SDS011;35342;52.378;4.648;2022-12-18T03:41:29;49.78;;;17.38;;
46593;SDS011;35342;52.378;4.648;2022-12-18T03:52:01;54.67;;;17.80;;
46593;SDS011;35342;52.378;4.648;2022-12-18T03:54:32;41.95;;;16.60;;
46593;SDS011;35342;52.378;4.648;2022-12-18T03:57:06;42.75;;;17.75;;
46593;SDS011;35342;52.378;4.648;2022-12-18T03:59:41;48.92;;;17.50;;
46593;SDS011;35342;52.378;4.648;2022-12-18T04:02:08;43.90;;;15.32;;
46593;SDS011;35342;52.378;4.648;2022-12-18T04:04:35;45.97;;;15.27;;
46593;SDS011;35342;52.378;4.648;2022-12-18T04:07:01;48.92;;;16.45;;
46593;SDS011;35342;52.378;4.648;2022-12-18T04:09:27;43.17;;;16.83;;
46593;SDS011;35342;52.378;4.648;2022-12-18T04:11:54;41.78;;;15.50;;
46593;SDS011;35342;52.378;4.648;2022-12-18T04:14:19;46.97;;;16.13;;
46593;SDS011;35342;52.378;4.648;2022-12-18T04:16:45;40.58;;;15.93;;
46593;SDS011;35342;52.378;4.648;2022-12-18T04:19:10;42.85;;;16.48;;
46593;SDS011;35342;52.378;4.648;2022-12-18T04:21:36;38.85;;;15.50;;
46593;SDS011;35342;52.378;4.648;2022-12-18T04:24:02;35.65;;;13.93;;
46593;SDS011;35342;52.378;4.648;2022-12-18T04:26:27;40.17;;;15.00;;
46593;SDS011;35342;52.378;4.648;2022-12-18T04:28:53;43.38;;;15.13;;
46593;SDS011;35342;52.378;4.648;2022-12-18T04:31:19;36.60;;;14.88;;
46593;SDS011;35342;52.378;4.648;2022-12-18T04:33:44;38.85;;;15.75;;
46593;SDS011;35342;52.378;4.648;2022-12-18T04:36:10;32.65;;;13.93;;
46593;SDS011;35342;52.378;4.648;2022-12-18T04:38:37;32.75;;;14.30;;
46593;SDS011;35342;52.378;4.648;2022-12-18T04:41:03;37.17;;;14.25;;
46593;SDS011;35342;52.378;4.648;2022-12-18T04:43:29;43.28;;;16.17;;
46593;SDS011;35342;52.378;4.648;2022-12-18T04:46:01;34.00;;;14.93;;
46593;SDS011;35342;52.378;4.648;2022-12-18T04:48:33;35.35;;;16.23;;
46593;SDS011;35342;52.378;4.648;2022-12-18T04:50:59;40.92;;;16.25;;
46593;SDS011;35342;52.378;4.648;2022-12-18T04:53:24;39.67;;;16.52;;
46593;SDS011;35342;52.378;4.648;2022-12-18T04:55:50;35.92;;;15.60;;
46593;SDS011;35342;52.378;4.648;2022-12-18T04:58:16;34.20;;;14.43;;
46593;SDS011;35342;52.378;4.648;2022-12-18T05:00:41;42.00;;;15.90;;
46593;SDS011;35342;52.378;4.648;2022-12-18T05:03:07;41.17;;;15.48;;
46593;SDS011;35342;52.378;4.648;2022-12-18T05:05:34;39.17;;;16.70;;
46593;SDS011;35342;52.378;4.648;2022-12-18T05:08:00;38.63;;;16.88;;
46593;SDS011;35342;52.378;4.648;2022-12-18T05:10:26;40.80;;;16.27;;
46593;SDS011;35342;52.378;4.648;2022-12-18T05:12:51;48.88;;;15.85;;
46593;SDS011;35342;52.378;4.648;2022-12-18T05:15:23;37.95;;;14.80;;
46593;SDS011;35342;52.378;4.648;2022-12-18T05:17:49;41.00;;;15.55;;
46593;SDS011;35342;52.378;4.648;2022-12-18T05:20:15;43.10;;;15.40;;
46593;SDS011;35342;52.378;4.648;2022-12-18T05:22:41;39.88;;;15.77;;
46593;SDS011;35342;52.378;4.648;2022-12-18T05:25:06;47.25;;;16.08;;
46593;SDS011;35342;52.378;4.648;2022-12-18T05:27:32;45.30;;;16.85;;
46593;SDS011;35342;52.378;4.648;2022-12-18T05:29:58;44.58;;;16.80;;
46593;SDS011;35342;52.378;4.648;2022-12-18T05:32:23;45.58;;;16.17;;
46593;SDS011;35342;52.378;4.648;2022-12-18T05:34:49;43.17;;;16.23;;
46593;SDS011;35342;52.378;4.648;2022-12-18T05:37:14;42.25;;;17.75;;
46593;SDS011;35342;52.378;4.648;2022-12-18T05:39:40;36.72;;;15.27;;
46593;SDS011;35342;52.378;4.648;2022-12-18T05:42:06;45.70;;;15.77;;
46593;SDS011;35342;52.378;4.648;2022-12-18T05:44:31;43.55;;;16.85;;
46593;SDS011;35342;52.378;4.648;2022-12-18T05:46:57;44.20;;;16.10;;
46593;SDS011;35342;52.378;4.648;2022-12-18T05:49:22;45.30;;;16.65;;
46593;SDS011;35342;52.378;4.648;2022-12-18T05:51:48;55.78;;;18.33;;
46593;SDS011;35342;52.378;4.648;2022-12-18T05:54:13;44.45;;;17.52;;
46593;SDS011;35342;52.378;4.648;2022-12-18T05:56:39;45.63;;;17.70;;
46593;SDS011;35342;52.378;4.648;2022-12-18T05:59:05;41.30;;;18.38;;
46593;SDS011;35342;52.378;4.648;2022-12-18T06:01:30;52.08;;;17.20;;
46593;SDS011;35342;52.378;4.648;2022-12-18T06:03:56;48.55;;;18.92;;
46593;SDS011;35342;52.378;4.648;2022-12-18T06:06:25;44.65;;;17.73;;
46593;SDS011;35342;52.378;4.648;2022-12-18T06:08:52;53.55;;;17.77;;
46593;SDS011;35342;52.378;4.648;2022-12-18T06:11:19;56.47;;;17.67;;
46593;SDS011;35342;52.378;4.648;2022-12-18T06:13:49;53.53;;;18.65;;
46593;SDS011;35342;52.378;4.648;2022-12-18T06:16:16;35.92;;;15.27;;
46593;SDS011;35342;52.378;4.648;2022-12-18T06:18:41;54.17;;;20.33;;
46593;SDS011;35342;52.378;4.648;2022-12-18T06:21:07;50.72;;;20.83;;
46593;SDS011;35342;52.378;4.648;2022-12-18T06:23:32;52.60;;;17.35;;
46593;SDS011;35342;52.378;4.648;2022-12-18T06:25:58;46.75;;;17.33;;
46593;SDS011;35342;52.378;4.648;2022-12-18T06:28:24;53.50;;;19.20;;
46593;SDS011;35342;52.378;4.648;2022-12-18T06:30:49;47.28;;;17.50;;
46593;SDS011;35342;52.378;4.648;2022-12-18T06:33:15;50.38;;;17.92;;
46593;SDS011;35342;52.378;4.648;2022-12-18T06:35:41;55.55;;;18.35;;
46593;SDS011;35342;52.378;4.648;2022-12-18T06:38:06;50.38;;;19.05;;
46593;SDS011;35342;52.378;4.648;2022-12-18T06:40:32;48.15;;;17.45;;
46593;SDS011;35342;52.378;4.648;2022-12-18T06:42:58;49.85;;;18.58;;
46593;SDS011;35342;52.378;4.648;2022-12-18T06:45:24;50.30;;;18.05;;
46593;SDS011;35342;52.378;4.648;2022-12-18T06:47:50;54.17;;;19.80;;
46593;SDS011;35342;52.378;4.648;2022-12-18T06:50:16;51.58;;;19.40;;
46593;SDS011;35342;52.378;4.648;2022-12-18T06:52:42;45.58;;;16.70;;
46593;SDS011;35342;52.378;4.648;2022-12-18T06:55:09;47.50;;;17.10;;
46593;SDS011;35342;52.378;4.648;2022-12-18T06:57:35;45.53;;;20.42;;
46593;SDS011;35342;52.378;4.648;2022-12-18T07:00:02;52.15;;;19.63;;
46593;SDS011;35342;52.378;4.648;2022-12-18T07:02:29;44.22;;;18.05;;
46593;SDS011;35342;52.378;4.648;2022-12-18T07:04:54;44.95;;;18.50;;
46593;SDS011;35342;52.378;4.648;2022-12-18T07:07:20;48.22;;;18.27;;
46593;SDS011;35342;52.378;4.648;2022-12-18T07:09:45;45.65;;;17.92;;
46593;SDS011;35342;52.378;4.648;2022-12-18T07:12:11;45.00;;;17.83;;
46593;SDS011;35342;52.378;4.648;2022-12-18T07:14:36;47.28;;;17.65;;
46593;SDS011;35342;52.378;4.648;2022-12-18T07:17:02;49.72;;;18.23;;
46593;SDS011;35342;52.378;4.648;2022-12-18T07:19:28;46.65;;;18.50;;
46593;SDS011;35342;52.378;4.648;2022-12-18T07:21:54;39.92;;;17.00;;
46593;SDS011;35342;52.378;4.648;2022-12-18T07:24:20;43.00;;;19.50;;
46593;SDS011;35342;52.378;4.648;2022-12-18T07:26:46;40.35;;;17.10;;
46593;SDS011;35342;52.378;4.648;2022-12-18T07:29:11;37.33;;;16.42;;
46593;SDS011;35342;52.378;4.648;2022-12-18T07:31:37;38.88;;;16.05;;
46593;SDS011;35342;52.378;4.648;2022-12-18T07:34:03;44.50;;;17.42;;
46593;SDS011;35342;52.378;4.648;2022-12-18T07:36:28;45.65;;;17.05;;
46593;SDS011;35342;52.378;4.648;2022-12-18T07:38:54;36.05;;;16.10;;
46593;SDS011;35342;52.378;4.648;2022-12-18T07:41:20;36.40;;;14.82;;
46593;SDS011;35342;52.378;4.648;2022-12-18T07:43:45;34.30;;;15.75;;
46593;SDS011;35342;52.378;4.648;2022-12-18T07:46:12;29.90;;;14.50;;
46593;SDS011;35342;52.378;4.648;2022-12-18T07:48:41;31.92;;;16.00;;
46593;SDS011;35342;52.378;4.648;2022-12-18T07:51:07;36.83;;;14.25;;
46593;SDS011;35342;52.378;4.648;2022-12-18T07:53:34;31.75;;;14.73;;
46593;SDS011;35342;52.378;4.648;2022-12-18T07:56:01;30.73;;;15.13;;
46593;SDS011;35342;52.378;4.648;2022-12-18T07:58:32;34.08;;;14.70;;
46593;SDS011;35342;52.378;4.648;2022-12-18T08:01:05;28.90;;;13.45;;
46593;SDS011;35342;52.378;4.648;2022-12-18T08:03:35;30.48;;;13.15;;
46593;SDS011;35342;52.378;4.648;2022-12-18T08:06:02;28.23;;;13.88;;
46593;SDS011;35342;52.378;4.648;2022-12-18T08:08:29;31.85;;;14.13;;
46593;SDS011;35342;52.378;4.648;2022-12-18T08:10:55;28.02;;;13.45;;
46593;SDS011;35342;52.378;4.648;2022-12-18T08:13:21;29.17;;;13.82;;
46593;SDS011;35342;52.378;4.648;2022-12-18T08:15:55;27.83;;;14.02;;
46593;SDS011;35342;52.378;4.648;2022-12-18T08:18:24;24.63;;;12.88;;
46593;SDS011;35342;52.378;4.648;2022-12-18T08:20:50;25.25;;;13.35;;
46593;SDS011;35342;52.378;4.648;2022-12-18T08:23:16;22.17;;;11.55;;
46593;SDS011;35342;52.378;4.648;2022-12-18T08:25:41;26.33;;;14.05;;
46593;SDS011;35342;52.378;4.648;2022-12-18T08:28:07;19.75;;;11.82;;
46593;SDS011;35342;52.378;4.648;2022-12-18T08:30:32;23.67;;;11.32;;
46593;SDS011;35342;52.378;4.648;2022-12-18T08:32:58;26.13;;;12.68;;
46593;SDS011;35342;52.378;4.648;2022-12-18T08:35:23;26.42;;;13.00;;
46593;SDS011;35342;52.378;4.648;2022-12-18T08:37:49;24.08;;;12.90;;
46593;SDS011;35342;52.378;4.648;2022-12-18T08:40:15;28.60;;;13.27;;
46593;SDS011;35342;52.378;4.648;2022-12-18T08:42:40;26.08;;;12.95;;
46593;SDS011;35342;52.378;4.648;2022-12-18T08:45:25;26.67;;;12.45;;
46593;SDS011;35342;52.378;4.648;2022-12-18T08:47:51;25.02;;;12.00;;
46593;SDS011;35342;52.378;4.648;2022-12-18T08:50:16;28.45;;;12.07;;
46593;SDS011;35342;52.378;4.648;2022-12-18T08:52:42;22.58;;;11.70;;
46593;SDS011;35342;52.378;4.648;2022-12-18T08:55:08;19.30;;;11.27;;
46593;SDS011;35342;52.378;4.648;2022-12-18T08:57:34;19.50;;;11.65;;
46593;SDS011;35342;52.378;4.648;2022-12-18T09:00:00;29.23;;;12.05;;
46593;SDS011;35342;52.378;4.648;2022-12-18T09:02:25;24.70;;;12.10;;
46593;SDS011;35342;52.378;4.648;2022-12-18T09:04:51;23.95;;;11.75;;
46593;SDS011;35342;52.378;4.648;2022-12-18T09:07:17;22.88;;;12.18;;
46593;SDS011;35342;52.378;4.648;2022-12-18T09:09:42;20.58;;;11.15;;
46593;SDS011;35342;52.378;4.648;2022-12-18T09:12:08;22.00;;;11.68;;
46593;SDS011;35342;52.378;4.648;2022-12-18T09:14:33;23.05;;;11.82;;
46593;SDS011;35342;52.378;4.648;2022-12-18T09:16:59;21.45;;;10.43;;
46593;SDS011;35342;52.378;4.648;2022-12-18T09:19:25;22.95;;;11.85;;
46593;SDS011;35342;52.378;4.648;2022-12-18T09:21:50;23.15;;;10.57;;
46593;SDS011;35342;52.378;4.648;2022-12-18T09:24:16;21.08;;;12.00;;
46593;SDS011;35342;52.378;4.648;2022-12-18T09:26:42;21.48;;;10.40;;
46593;SDS011;35342;52.378;4.648;2022-12-18T09:29:09;19.80;;;10.57;;
46593;SDS011;35342;52.378;4.648;2022-12-18T09:31:35;18.75;;;11.10;;
46593;SDS011;35342;52.378;4.648;2022-12-18T09:34:01;28.33;;;10.90;;
46593;SDS011;35342;52.378;4.648;2022-12-18T09:36:27;27.50;;;10.70;;
46593;SDS011;35342;52.378;4.648;2022-12-18T09:38:53;21.02;;;12.15;;
46593;SDS011;35342;52.378;4.648;2022-12-18T09:44:28;14.15;;;9.13;;
46593;SDS011;35342;52.378;4.648;2022-12-18T09:49:45;20.67;;;9.95;;
46593;SDS011;35342;52.378;4.648;2022-12-18T09:52:33;16.83;;;10.98;;
46593;SDS011;35342;52.378;4.648;2022-12-18T09:55:22;18.98;;;10.15;;
46593;SDS011;35342;52.378;4.648;2022-12-18T09:57:58;20.33;;;10.57;;
46593;SDS011;35342;52.378;4.648;2022-12-18T10:00:27;16.88;;;9.73;;
46593;SDS011;35342;52.378;4.648;2022-12-18T10:02:58;22.60;;;9.95;;
46593;SDS011;35342;52.378;4.648;2022-12-18T10:08:18;23.58;;;10.45;;
46593;SDS011;35342;52.378;4.648;2022-12-18T10:10:57;17.13;;;8.90;;
46593;SDS011;35342;52.378;4.648;2022-12-18T10:13:49;20.58;;;10.60;;
46593;SDS011;35342;52.378;4.648;2022-12-18T10:16:29;17.80;;;10.05;;
46593;SDS011;35342;52.378;4.648;2022-12-18T10:24:39;20.85;;;9.15;;
46593;SDS011;35342;52.378;4.648;2022-12-18T10:27:17;18.45;;;10.30;;
46593;SDS011;35342;52.378;4.648;2022-12-18T10:29:46;18.88;;;10.43;;
46593;SDS011;35342;52.378;4.648;2022-12-18T10:32:20;16.30;;;9.52;;
46593;SDS011;35342;52.378;4.648;2022-12-18T10:34:50;16.88;;;9.43;;
46593;SDS011;35342;52.378;4.648;2022-12-18T10:37:18;19.45;;;9.68;;
46593;SDS011;35342;52.378;4.648;2022-12-18T10:42:41;18.77;;;9.45;;
46593;SDS011;35342;52.378;4.648;2022-12-18T10:45:15;16.55;;;10.10;;
46593;SDS011;35342;52.378;4.648;2022-12-18T10:47:45;14.63;;;9.57;;
46593;SDS011;35342;52.378;4.648;2022-12-18T10:50:28;14.93;;;9.45;;
46593;SDS011;35342;52.378;4.648;2022-12-18T10:52:59;14.75;;;10.40;;
46593;SDS011;35342;52.378;4.648;2022-12-18T10:55:27;18.88;;;10.05;;
46593;SDS011;35342;52.378;4.648;2022-12-18T11:01:02;18.73;;;10.02;;
46593;SDS011;35342;52.378;4.648;2022-12-18T11:06:09;15.02;;;8.63;;
46593;SDS011;35342;52.378;4.648;2022-12-18T11:08:35;15.85;;;9.32;;
46593;SDS011;35342;52.378;4.648;2022-12-18T11:11:01;15.15;;;8.57;;
46593;SDS011;35342;52.378;4.648;2022-12-18T11:13:28;20.95;;;11.23;;
46593;SDS011;35342;52.378;4.648;2022-12-18T11:15:55;14.82;;;9.43;;
46593;SDS011;35342;52.378;4.648;2022-12-18T11:20:58;20.00;;;9.50;;
46593;SDS011;35342;52.378;4.648;2022-12-18T11:23:35;14.63;;;8.63;;
46593;SDS011;35342;52.378;4.648;2022-12-18T11:26:03;20.75;;;11.02;;
46593;SDS011;35342;52.378;4.648;2022-12-18T11:28:39;17.20;;;9.45;;
46593;SDS011;35342;52.378;4.648;2022-12-18T11:31:21;18.25;;;8.98;;
46593;SDS011;35342;52.378;4.648;2022-12-18T11:33:52;15.18;;;8.30;;
46593;SDS011;35342;52.378;4.648;2022-12-18T11:36:44;17.30;;;8.35;;
46593;SDS011;35342;52.378;4.648;2022-12-18T11:39:18;21.70;;;9.52;;
46593;SDS011;35342;52.378;4.648;2022-12-18T11:44:40;19.05;;;8.88;;
46593;SDS011;35342;52.378;4.648;2022-12-18T11:49:55;18.52;;;9.07;;
46593;SDS011;35342;52.378;4.648;2022-12-18T11:52:31;19.98;;;9.88;;
46593;SDS011;35342;52.378;4.648;2022-12-18T11:55:05;19.73;;;10.13;;
46593;SDS011;35342;52.378;4.648;2022-12-18T12:00:21;14.68;;;8.40;;
46593;SDS011;35342;52.378;4.648;2022-12-18T12:11:15;12.20;;;7.20;;
46593;SDS011;35342;52.378;4.648;2022-12-18T12:16:25;19.80;;;10.75;;
46593;SDS011;35342;52.378;4.648;2022-12-18T12:21:49;14.18;;;9.25;;
46593;SDS011;35342;52.378;4.648;2022-12-18T12:33:06;17.80;;;8.75;;
46593;SDS011;35342;52.378;4.648;2022-12-18T12:38:56;13.68;;;8.85;;
46593;SDS011;35342;52.378;4.648;2022-12-18T12:41:25;16.63;;;8.95;;
46593;SDS011;35342;52.378;4.648;2022-12-18T12:44:31;17.20;;;8.85;;
46593;SDS011;35342;52.378;4.648;2022-12-18T12:47:06;21.02;;;8.98;;
46593;SDS011;35342;52.378;4.648;2022-12-18T12:49:41;19.75;;;9.88;;
46593;SDS011;35342;52.378;4.648;2022-12-18T12:52:13;18.55;;;10.73;;
46593;SDS011;35342;52.378;4.648;2022-12-18T12:54:41;16.10;;;9.18;;
46593;SDS011;35342;52.378;4.648;2022-12-18T12:59:47;20.88;;;9.75;;
46593;SDS011;35342;52.378;4.648;2022-12-18T13:02:28;12.95;;;8.18;;
46593;SDS011;35342;52.378;4.648;2022-12-18T13:07:47;19.00;;;10.15;;
46593;SDS011;35342;52.378;4.648;2022-12-18T13:20:47;18.15;;;9.00;;
46593;SDS011;35342;52.378;4.648;2022-12-18T13:34:25;15.27;;;8.95;;
46593;SDS011;35342;52.378;4.648;2022-12-18T13:36:52;17.63;;;9.88;;
46593;SDS011;35342;52.378;4.648;2022-12-18T13:42:37;15.80;;;9.32;;
46593;SDS011;35342;52.378;4.648;2022-12-18T13:44:54;21.83;;;10.90;;
46593;SDS011;35342;52.378;4.648;2022-12-18T13:50:22;14.90;;;9.25;;
46593;SDS011;35342;52.378;4.648;2022-12-18T13:52:48;17.55;;;9.73;;
46593;SDS011;35342;52.378;4.648;2022-12-18T13:55:16;17.95;;;9.48;;
46593;SDS011;35342;52.378;4.648;2022-12-18T13:57:44;18.27;;;9.82;;
46593;SDS011;35342;52.378;4.648;2022-12-18T14:02:47;16.42;;;9.13;;
46593;SDS011;35342;52.378;4.648;2022-12-18T14:05:27;15.18;;;9.20;;
46593;SDS011;35342;52.378;4.648;2022-12-18T14:07:55;21.17;;;8.98;;
46593;SDS011;35342;52.378;4.648;2022-12-18T14:10:25;15.05;;;9.25;;
46593;SDS011;35342;52.378;4.648;2022-12-18T14:12:51;16.08;;;10.10;;
46593;SDS011;35342;52.378;4.648;2022-12-18T14:17:54;15.05;;;9.18;;
46593;SDS011;35342;52.378;4.648;2022-12-18T14:20:39;17.13;;;8.85;;
46593;SDS011;35342;52.378;4.648;2022-12-18T14:23:24;15.30;;;8.85;;
46593;SDS011;35342;52.378;4.648;2022-12-18T14:25:57;17.08;;;8.95;;
46593;SDS011;35342;52.378;4.648;2022-12-18T14:28:23;18.35;;;9.05;;
46593;SDS011;35342;52.378;4.648;2022-12-18T14:30:49;15.50;;;9.23;;
46593;SDS011;35342;52.378;4.648;2022-12-18T14:33:20;13.65;;;8.98;;
46593;SDS011;35342;52.378;4.648;2022-12-18T14:36:04;14.13;;;8.20;;
46593;SDS011;35342;52.378;4.648;2022-12-18T14:38:32;14.43;;;8.55;;
46593;SDS011;35342;52.378;4.648;2022-12-18T14:43:44;18.67;;;9.07;;
46593;SDS011;35342;52.378;4.648;2022-12-18T14:48:49;15.57;;;8.95;;
46593;SDS011;35342;52.378;4.648;2022-12-18T14:51:19;18.45;;;9.60;;
46593;SDS011;35342;52.378;4.648;2022-12-18T14:53:55;20.90;;;9.63;;
46593;SDS011;35342;52.378;4.648;2022-12-18T14:58:50;15.95;;;9.27;;
46593;SDS011;35342;52.378;4.648;2022-12-18T15:01:23;17.05;;;9.57;;
46593;SDS011;35342;52.378;4.648;2022-12-18T15:06:26;14.65;;;9.70;;
46593;SDS011;35342;52.378;4.648;2022-12-18T15:08:55;17.42;;;9.25;;
46593;SDS011;35342;52.378;4.648;2022-12-18T15:11:28;17.92;;;9.55;;
46593;SDS011;35342;52.378;4.648;2022-12-18T15:13:57;16.15;;;9.15;;
46593;SDS011;35342;52.378;4.648;2022-12-18T15:16:23;17.77;;;10.10;;
46593;SDS011;35342;52.378;4.648;2022-12-18T15:18:49;18.80;;;10.20;;
46593;SDS011;35342;52.378;4.648;2022-12-18T15:21:18;18.85;;;10.35;;
46593;SDS011;35342;52.378;4.648;2022-12-18T15:26:12;20.58;;;9.30;;
46593;SDS011;35342;52.378;4.648;2022-12-18T15:28:55;18.08;;;9.90;;
46593;SDS011;35342;52.378;4.648;2022-12-18T15:31:30;19.27;;;9.65;;
46593;SDS011;35342;52.378;4.648;2022-12-18T15:36:24;22.58;;;10.40;;
46593;SDS011;35342;52.378;4.648;2022-12-18T15:38:50;17.48;;;9.27;;
46593;SDS011;35342;52.378;4.648;2022-12-18T15:41:19;15.38;;;8.70;;
46593;SDS011;35342;52.378;4.648;2022-12-18T15:43:46;18.33;;;10.13;;
46593;SDS011;35342;52.378;4.648;2022-12-18T15:46:18;14.10;;;8.55;;
46593;SDS011;35342;52.378;4.648;2022-12-18T15:48:48;13.70;;;8.50;;
46593;SDS011;35342;52.378;4.648;2022-12-18T15:54:02;20.52;;;10.52;;
46593;SDS011;35342;52.378;4.648;2022-12-18T15:56:29;16.15;;;9.52;;
46593;SDS011;35342;52.378;4.648;2022-12-18T15:59:14;16.30;;;9.32;;
46593;SDS011;35342;52.378;4.648;2022-12-18T16:01:44;15.98;;;9.30;;
46593;SDS011;35342;52.378;4.648;2022-12-18T16:04:13;20.17;;;11.18;;
46593;SDS011;35342;52.378;4.648;2022-12-18T16:06:40;15.35;;;9.52;;
46593;SDS011;35342;52.378;4.648;2022-12-18T16:09:07;18.58;;;9.70;;
46593;SDS011;35342;52.378;4.648;2022-12-18T16:11:33;21.95;;;9.85;;
46593;SDS011;35342;52.378;4.648;2022-12-18T16:14:11;20.27;;;9.70;;
46593;SDS011;35342;52.378;4.648;2022-12-18T16:16:58;16.67;;;9.25;;
46593;SDS011;35342;52.378;4.648;2022-12-18T16:19:25;14.18;;;9.00;;
46593;SDS011;35342;52.378;4.648;2022-12-18T16:21:52;18.65;;;10.55;;
46593;SDS011;35342;52.378;4.648;2022-12-18T16:24:30;16.20;;;9.35;;
46593;SDS011;35342;52.378;4.648;2022-12-18T16:26:58;17.73;;;9.80;;
46593;SDS011;35342;52.378;4.648;2022-12-18T16:29:25;20.23;;;10.32;;
46593;SDS011;35342;52.378;4.648;2022-12-18T16:31:52;16.05;;;9.93;;
46593;SDS011;35342;52.378;4.648;2022-12-18T16:34:22;20.05;;;10.77;;
46593;SDS011;35342;52.378;4.648;2022-12-18T16:36:51;19.67;;;10.77;;
46593;SDS011;35342;52.378;4.648;2022-12-18T16:39:18;18.15;;;9.20;;
46593;SDS011;35342;52.378;4.648;2022-12-18T16:41:44;17.33;;;10.23;;
46593;SDS011;35342;52.378;4.648;2022-12-18T16:44:10;15.70;;;9.25;;
46593;SDS011;35342;52.378;4.648;2022-12-18T16:46:36;19.63;;;10.57;;
46593;SDS011;35342;52.378;4.648;2022-12-18T16:49:02;17.67;;;9.65;;
46593;SDS011;35342;52.378;4.648;2022-12-18T16:51:28;21.83;;;10.73;;
46593;SDS011;35342;52.378;4.648;2022-12-18T16:53:54;20.38;;;11.88;;
46593;SDS011;35342;52.378;4.648;2022-12-18T16:56:20;16.92;;;10.23;;
46593;SDS011;35342;52.378;4.648;2022-12-18T16:58:51;24.65;;;11.38;;
46593;SDS011;35342;52.378;4.648;2022-12-18T17:01:18;19.23;;;9.35;;
46593;SDS011;35342;52.378;4.648;2022-12-18T17:03:44;18.40;;;10.40;;
46593;SDS011;35342;52.378;4.648;2022-12-18T17:06:16;19.30;;;9.82;;